Accueil
METAR-TAF:

METAR-TAF

Aéroports :

Aéroport international de Sunan

Pyongyang, Corée du Nord

latitude: 39-02N, longitude: 125-47E, altitude: 36 m

METAR: absent

Heure: 13:48 (04:48 UTC)

Prévision

Le bulletin a été fait il y a 48 minutes, à 04:00 UTC
Prévision valable du 22 à 06 UTC au 23 à 06 UTC
Vent 6 kt de ouest/sud-ouest
Visibilité: 6000 m
Ciel couvert à une hauteur de 2300 ft
pluie faible
Evoluant progressivement
du 22 à 12 UTC au 22 à 14 UTC
Visibilité: 7000 m
Evoluant progressivement
du 22 à 20 UTC au 22 à 22 UTC
Vent 6 kt de nord
Visibilité 10 km ou plus
pas de nuages en-dessous de 1500 mètres et pas de cumulonimbus.

TAF: ZKPY 220400Z 2206/2306 24003MPS 6000 -RA OVC023 TX14/2206Z TN04/2221Z BECMG 2212/2214 7000 NSC BECMG 2220/2222 35003MPS CAVOK

Observations et prévisions météorologiques de plus de 4000 aéroports (messages METAR et TAF).

Les stations disponibles sont représentées par des disques jaunes et rouges sur la carte.

Passer la souris dessus pour voir le nom de la station.

Cliquer dessus pour voir les observations et prévisions météorologiques.

Pour changer de carte: cliquez sur les boutons verts avec une croix noire pour zoomer, sur le bouton vert avec un tiret pour effectuer un zoom arrière, ou sur les flèches vertes pour les cartes adjacentes.


METAR-TAF: